<?xml version="1.0" encoding="UTF-8" standalone="no" ?>
<gpx xmlns="http://www.topografix.com/GPX/1/1" xmlns:xsi="http://www.w3.org/2001/XMLSchema-instance" xsi:schemaLocation="http://www.topografix.com/GPX/1/1 http://www.topografix.com/GPX/1/1/gpx.xsd" version="1.1" creator="VisuGPX - https://www.visugpx.com">
  <metadata>
    <name>ARQUES LA SEYNE SUR MER 1497 KM</name>
    <desc><![CDATA[Rando de Arques dans le Pas de Calais jusque La Seyne sur Mer dans le Var, 1497 km]]></desc>
  </metadata>
  <trk>
    <name><![CDATA[22 - MARANVILLE SEMOUTIERS 34.2 KM]]></name>
    <extensions>
      <line xmlns="http://www.topografix.com/GPX/gpx_style/0/2">
        <color>880000</color>
        <width>4</width>
      </line>
    </extensions>
    <trkseg>
      <trkpt lat="48.13633" lon="4.86012">
        <ele>203</ele>
        <time>2021-11-05T17:09:37+01:00</time>
      </trkpt>
      <trkpt lat="48.13599" lon="4.86083">
        <ele>204</ele>
        <time>2021-11-05T17:09:42+01:00</time>
      </trkpt>
      <trkpt lat="48.13294" lon="4.86154">
        <ele>233</ele>
        <time>2021-11-05T17:09:47+01:00</time>
      </trkpt>
      <trkpt lat="48.13053" lon="4.86321">
        <ele>254</ele>
        <time>2021-11-05T17:09:52+01:00</time>
      </trkpt>
      <trkpt lat="48.12979" lon="4.86271">
        <ele>264</ele>
        <time>2021-11-05T17:09:57+01:00</time>
      </trkpt>
      <trkpt lat="48.1283" lon="4.85956">
        <ele>306</ele>
        <time>2021-11-05T17:10:02+01:00</time>
      </trkpt>
      <trkpt lat="48.12736" lon="4.85775">
        <ele>330</ele>
        <time>2021-11-05T17:10:07+01:00</time>
      </trkpt>
      <trkpt lat="48.1266" lon="4.85888">
        <ele>323</ele>
        <time>2021-11-05T17:10:12+01:00</time>
      </trkpt>
      <trkpt lat="48.12546" lon="4.85973">
        <ele>312</ele>
        <time>2021-11-05T17:10:17+01:00</time>
      </trkpt>
      <trkpt lat="48.12444" lon="4.85895">
        <ele>313</ele>
        <time>2021-11-05T17:10:22+01:00</time>
      </trkpt>
      <trkpt lat="48.12115" lon="4.85247">
        <ele>336</ele>
        <time>2021-11-05T17:10:27+01:00</time>
      </trkpt>
      <trkpt lat="48.12037" lon="4.85247">
        <ele>340</ele>
        <time>2021-11-05T17:10:32+01:00</time>
      </trkpt>
      <trkpt lat="48.11999" lon="4.85374">
        <ele>339</ele>
        <time>2021-11-05T17:10:37+01:00</time>
      </trkpt>
      <trkpt lat="48.12006" lon="4.86069">
        <ele>322</ele>
        <time>2021-11-05T17:10:42+01:00</time>
      </trkpt>
      <trkpt lat="48.11971" lon="4.86122">
        <ele>323</ele>
        <time>2021-11-05T17:10:47+01:00</time>
      </trkpt>
      <trkpt lat="48.11831" lon="4.86147">
        <ele>325</ele>
        <time>2021-11-05T17:10:52+01:00</time>
      </trkpt>
      <trkpt lat="48.11777" lon="4.86239">
        <ele>308</ele>
        <time>2021-11-05T17:10:57+01:00</time>
      </trkpt>
      <trkpt lat="48.11689" lon="4.86654">
        <ele>265</ele>
        <time>2021-11-05T17:11:02+01:00</time>
      </trkpt>
      <trkpt lat="48.1164" lon="4.86612">
        <ele>263</ele>
        <time>2021-11-05T17:11:07+01:00</time>
      </trkpt>
      <trkpt lat="48.1155" lon="4.86339">
        <ele>259</ele>
        <time>2021-11-05T17:11:12+01:00</time>
      </trkpt>
      <trkpt lat="48.11476" lon="4.86424">
        <ele>250</ele>
        <time>2021-11-05T17:11:17+01:00</time>
      </trkpt>
      <trkpt lat="48.11422" lon="4.8669">
        <ele>237</ele>
        <time>2021-11-05T17:11:22+01:00</time>
      </trkpt>
      <trkpt lat="48.11358" lon="4.86899">
        <ele>229</ele>
        <time>2021-11-05T17:11:27+01:00</time>
      </trkpt>
      <trkpt lat="48.11197" lon="4.87087">
        <ele>216</ele>
        <time>2021-11-05T17:11:32+01:00</time>
      </trkpt>
      <trkpt lat="48.11083" lon="4.8719">
        <ele>215</ele>
        <time>2021-11-05T17:11:37+01:00</time>
      </trkpt>
      <trkpt lat="48.11069" lon="4.87262">
        <ele>212</ele>
        <time>2021-11-05T17:11:42+01:00</time>
      </trkpt>
      <trkpt lat="48.10955" lon="4.87299">
        <ele>213</ele>
        <time>2021-11-05T17:11:47+01:00</time>
      </trkpt>
      <trkpt lat="48.10875" lon="4.87416">
        <ele>219</ele>
        <time>2021-11-05T17:11:52+01:00</time>
      </trkpt>
      <trkpt lat="48.10956" lon="4.87553">
        <ele>212</ele>
        <time>2021-11-05T17:11:57+01:00</time>
      </trkpt>
      <trkpt lat="48.10939" lon="4.87675">
        <ele>213</ele>
        <time>2021-11-05T17:12:02+01:00</time>
      </trkpt>
      <trkpt lat="48.11211" lon="4.8804">
        <ele>205</ele>
        <time>2021-11-05T17:12:07+01:00</time>
      </trkpt>
      <trkpt lat="48.11348" lon="4.88323">
        <ele>205</ele>
        <time>2021-11-05T17:12:12+01:00</time>
      </trkpt>
      <trkpt lat="48.11471" lon="4.88744">
        <ele>205</ele>
        <time>2021-11-05T17:12:17+01:00</time>
      </trkpt>
      <trkpt lat="48.1122" lon="4.88841">
        <ele>205</ele>
        <time>2021-11-05T17:12:22+01:00</time>
      </trkpt>
      <trkpt lat="48.11055" lon="4.88992">
        <ele>205</ele>
        <time>2021-11-05T17:12:27+01:00</time>
      </trkpt>
      <trkpt lat="48.10866" lon="4.89309">
        <ele>208</ele>
        <time>2021-11-05T17:12:32+01:00</time>
      </trkpt>
      <trkpt lat="48.10817" lon="4.89482">
        <ele>210</ele>
        <time>2021-11-05T17:12:37+01:00</time>
      </trkpt>
      <trkpt lat="48.10641" lon="4.89621">
        <ele>208</ele>
        <time>2021-11-05T17:12:42+01:00</time>
      </trkpt>
      <trkpt lat="48.10736" lon="4.89887">
        <ele>228</ele>
        <time>2021-11-05T17:12:47+01:00</time>
      </trkpt>
      <trkpt lat="48.10837" lon="4.90335">
        <ele>262</ele>
        <time>2021-11-05T17:12:52+01:00</time>
      </trkpt>
      <trkpt lat="48.10839" lon="4.9047">
        <ele>272</ele>
        <time>2021-11-05T17:12:57+01:00</time>
      </trkpt>
      <trkpt lat="48.10802" lon="4.90578">
        <ele>274</ele>
        <time>2021-11-05T17:13:02+01:00</time>
      </trkpt>
      <trkpt lat="48.1077" lon="4.91047">
        <ele>292</ele>
        <time>2021-11-05T17:13:07+01:00</time>
      </trkpt>
      <trkpt lat="48.10616" lon="4.9137">
        <ele>285</ele>
        <time>2021-11-05T17:13:12+01:00</time>
      </trkpt>
      <trkpt lat="48.10551" lon="4.91542">
        <ele>285</ele>
        <time>2021-11-05T17:13:17+01:00</time>
      </trkpt>
      <trkpt lat="48.10327" lon="4.9182">
        <ele>293</ele>
        <time>2021-11-05T17:13:22+01:00</time>
      </trkpt>
      <trkpt lat="48.10186" lon="4.91952">
        <ele>291</ele>
        <time>2021-11-05T17:13:27+01:00</time>
      </trkpt>
      <trkpt lat="48.09942" lon="4.92376">
        <ele>290</ele>
        <time>2021-11-05T17:13:32+01:00</time>
      </trkpt>
      <trkpt lat="48.09845" lon="4.92499">
        <ele>297</ele>
        <time>2021-11-05T17:13:37+01:00</time>
      </trkpt>
      <trkpt lat="48.09649" lon="4.92649">
        <ele>305</ele>
        <time>2021-11-05T17:13:42+01:00</time>
      </trkpt>
      <trkpt lat="48.09429" lon="4.93037">
        <ele>290</ele>
        <time>2021-11-05T17:13:47+01:00</time>
      </trkpt>
      <trkpt lat="48.09037" lon="4.92515">
        <ele>267</ele>
        <time>2021-11-05T17:13:52+01:00</time>
      </trkpt>
      <trkpt lat="48.08305" lon="4.92397">
        <ele>213</ele>
        <time>2021-11-05T17:13:57+01:00</time>
      </trkpt>
      <trkpt lat="48.08242" lon="4.92643">
        <ele>216</ele>
        <time>2021-11-05T17:14:02+01:00</time>
      </trkpt>
      <trkpt lat="48.08061" lon="4.92572">
        <ele>214</ele>
        <time>2021-11-05T17:14:07+01:00</time>
      </trkpt>
      <trkpt lat="48.07882" lon="4.92907">
        <ele>213</ele>
        <time>2021-11-05T17:14:12+01:00</time>
      </trkpt>
      <trkpt lat="48.06627" lon="4.9141">
        <ele>231</ele>
        <time>2021-11-05T17:14:17+01:00</time>
      </trkpt>
      <trkpt lat="48.06501" lon="4.91237">
        <ele>219</ele>
        <time>2021-11-05T17:14:22+01:00</time>
      </trkpt>
      <trkpt lat="48.06361" lon="4.91299">
        <ele>217</ele>
        <time>2021-11-05T17:14:27+01:00</time>
      </trkpt>
      <trkpt lat="48.06324" lon="4.91552">
        <ele>222</ele>
        <time>2021-11-05T17:14:32+01:00</time>
      </trkpt>
      <trkpt lat="48.06155" lon="4.91473">
        <ele>218</ele>
        <time>2021-11-05T17:14:37+01:00</time>
      </trkpt>
      <trkpt lat="48.05606" lon="4.91354">
        <ele>217</ele>
        <time>2021-11-05T17:14:42+01:00</time>
      </trkpt>
      <trkpt lat="48.05361" lon="4.91422">
        <ele>220</ele>
        <time>2021-11-05T17:14:47+01:00</time>
      </trkpt>
      <trkpt lat="48.05154" lon="4.91549">
        <ele>226</ele>
        <time>2021-11-05T17:14:52+01:00</time>
      </trkpt>
      <trkpt lat="48.04954" lon="4.9163">
        <ele>226</ele>
        <time>2021-11-05T17:14:57+01:00</time>
      </trkpt>
      <trkpt lat="48.04756" lon="4.9162">
        <ele>222</ele>
        <time>2021-11-05T17:15:02+01:00</time>
      </trkpt>
      <trkpt lat="48.04184" lon="4.91859">
        <ele>233</ele>
        <time>2021-11-05T17:15:07+01:00</time>
      </trkpt>
      <trkpt lat="48.04116" lon="4.91829">
        <ele>235</ele>
        <time>2021-11-05T17:15:12+01:00</time>
      </trkpt>
      <trkpt lat="48.03984" lon="4.91883">
        <ele>238</ele>
        <time>2021-11-05T17:15:17+01:00</time>
      </trkpt>
      <trkpt lat="48.04141" lon="4.92467">
        <ele>243</ele>
        <time>2021-11-05T17:15:22+01:00</time>
      </trkpt>
      <trkpt lat="48.04148" lon="4.93059">
        <ele>252</ele>
        <time>2021-11-05T17:15:27+01:00</time>
      </trkpt>
      <trkpt lat="48.04255" lon="4.93327">
        <ele>253</ele>
        <time>2021-11-05T17:15:32+01:00</time>
      </trkpt>
      <trkpt lat="48.04317" lon="4.93617">
        <ele>255</ele>
        <time>2021-11-05T17:15:37+01:00</time>
      </trkpt>
      <trkpt lat="48.04368" lon="4.94225">
        <ele>263</ele>
        <time>2021-11-05T17:15:42+01:00</time>
      </trkpt>
      <trkpt lat="48.04572" lon="4.95241">
        <ele>271</ele>
        <time>2021-11-05T17:15:47+01:00</time>
      </trkpt>
      <trkpt lat="48.04085" lon="4.95524">
        <ele>275</ele>
        <time>2021-11-05T17:15:52+01:00</time>
      </trkpt>
      <trkpt lat="48.04051" lon="4.96255">
        <ele>287</ele>
        <time>2021-11-05T17:15:57+01:00</time>
      </trkpt>
      <trkpt lat="48.04815" lon="4.96797">
        <ele>280</ele>
        <time>2021-11-05T17:16:02+01:00</time>
      </trkpt>
      <trkpt lat="48.04439" lon="4.98091">
        <ele>299</ele>
        <time>2021-11-05T17:16:07+01:00</time>
      </trkpt>
      <trkpt lat="48.04273" lon="4.97886">
        <ele>295</ele>
        <time>2021-11-05T17:16:12+01:00</time>
      </trkpt>
      <trkpt lat="48.04212" lon="4.98398">
        <ele>310</ele>
        <time>2021-11-05T17:16:17+01:00</time>
      </trkpt>
      <trkpt lat="48.03457" lon="4.98319">
        <ele>308</ele>
        <time>2021-11-05T17:16:22+01:00</time>
      </trkpt>
      <trkpt lat="48.03335" lon="4.99164">
        <ele>313</ele>
        <time>2021-11-05T17:16:27+01:00</time>
      </trkpt>
      <trkpt lat="48.03451" lon="4.99194">
        <ele>315</ele>
        <time>2021-11-05T17:16:32+01:00</time>
      </trkpt>
      <trkpt lat="48.03006" lon="5.02128">
        <ele>333</ele>
        <time>2021-11-05T17:16:37+01:00</time>
      </trkpt>
      <trkpt lat="48.02784" lon="5.04906">
        <ele>344</ele>
        <time>2021-11-05T17:16:42+01:00</time>
      </trkpt>
      <trkpt lat="48.02739" lon="5.05012">
        <ele>338</ele>
        <time>2021-11-05T17:16:47+01:00</time>
      </trkpt>
      <trkpt lat="48.02957" lon="5.05148">
        <ele>335</ele>
        <time>2021-11-05T17:16:52+01:00</time>
      </trkpt>
      <trkpt lat="48.03085" lon="5.05122">
        <ele>337</ele>
        <time>2021-11-05T17:16:57+01:00</time>
      </trkpt>
      <trkpt lat="48.03426" lon="5.05866">
        <ele>338</ele>
        <time>2021-11-05T17:17:02+01:00</time>
      </trkpt>
      <trkpt lat="48.03811" lon="5.05769">
        <ele>333</ele>
        <time>2021-11-05T17:17:07+01:00</time>
      </trkpt>
      <trkpt lat="48.04826" lon="5.05753">
        <ele>327</ele>
        <time>2021-11-05T17:17:12+01:00</time>
      </trkpt>
      <trkpt lat="48.05067" lon="5.05889">
        <ele>325</ele>
        <time>2021-11-05T17:17:17+01:00</time>
      </trkpt>
      <trkpt lat="48.05568" lon="5.06593">
        <ele>319</ele>
        <time>2021-11-05T17:17:22+01:00</time>
      </trkpt>
      <trkpt lat="48.05501" lon="5.06773">
        <ele>320</ele>
        <time>2021-11-05T17:17:27+01:00</time>
      </trkpt>
      <trkpt lat="48.05434" lon="5.06854">
        <ele>317</ele>
        <time>2021-11-05T17:17:32+01:00</time>
      </trkpt>
    </trkseg>
  </trk>
</gpx>